Time;durP1;ratioP1;P1;durP2;ratioP2;P2;SDS_P1;SDS_P2;PMS_P1;PMS_P2;Temp;Humidity;BMP_temperature;BMP_pressure;BME280_temperature;BME280_humidity;BME280_pressure;Samples;Min_cycle;Max_cycle;Signal;HPM_P1;HPM_P2
2022/04/08 00:00:48;;;;;;;11.38;8.23;;;333.20;1740.80;;;;;;5096018;28;20443;-69
2022/04/08 00:03:14;;;;;;;15.90;7.40;;;333.20;1740.80;;;;;;5096150;28;20024;-69
2022/04/08 00:05:40;;;;;;;12.57;7.80;;;333.10;1766.40;;;;;;5095052;28;20473;-69
2022/04/08 00:08:06;;;;;;;12.07;8.27;;;333.10;1740.80;;;;;;5095621;28;20127;-69
2022/04/08 00:10:32;;;;;;;12.68;8.00;;;333.10;1740.80;;;;;;5095895;28;20027;-69
2022/04/08 00:12:57;;;;;;;14.18;7.15;;;333.10;1740.80;;;;;;5095715;28;20028;-69
2022/04/08 00:15:23;;;;;;;10.38;6.72;;;333.20;1740.80;;;;;;5095316;28;20074;-69
2022/04/08 00:17:49;;;;;;;9.68;5.97;;;333.20;1740.80;;;;;;5094582;28;20055;-69
2022/04/08 00:20:15;;;;;;;9.98;6.20;;;333.20;1740.80;;;;;;5094033;28;20147;-68
2022/04/08 00:22:42;;;;;;;9.48;6.47;;;333.20;1715.20;;;;;;5093684;28;20020;-69
2022/04/08 00:25:09;;;;;;;9.32;6.05;;;333.20;1715.20;;;;;;5093420;28;20061;-69
2022/04/08 00:27:34;;;;;;;15.73;6.45;;;333.30;1715.20;;;;;;5095039;28;20103;-69
2022/04/08 00:30:00;;;;;;;14.70;8.70;;;333.30;1715.20;;;;;;5094939;28;20104;-68
2022/04/08 00:32:29;;;;;;;18.65;9.25;;;333.20;1715.20;;;;;;5094702;28;20028;-69
2022/04/08 00:34:55;;;;;;;21.65;9.65;;;333.00;1740.80;;;;;;5092131;28;20484;-68
2022/04/08 00:37:20;;;;;;;21.95;9.80;;;333.10;1715.20;;;;;;5094948;28;20017;-69
2022/04/08 00:39:46;;;;;;;13.88;8.20;;;333.00;1766.40;;;;;;5094379;28;20166;-69
2022/04/08 00:42:15;;;;;;;23.95;8.23;;;333.00;1740.80;;;;;;5094061;28;20047;-69
2022/04/08 00:44:41;;;;;;;16.02;7.43;;;333.00;1740.80;;;;;;5093292;28;20081;-69
2022/04/08 00:47:06;;;;;;;14.35;6.95;;;333.00;1766.40;;;;;;5094463;28;20404;-69
2022/04/08 00:49:37;;;;;;;24.33;7.40;;;332.90;1740.80;;;;;;5095328;28;20054;-69
2022/04/08 00:52:04;;;;;;;20.10;6.85;;;332.90;1766.40;;;;;;5093971;28;20016;-68
2022/04/08 00:54:31;;;;;;;20.77;6.65;;;332.90;1766.40;;;;;;5093858;28;20032;-69
2022/04/08 00:56:57;;;;;;;12.15;6.60;;;332.80;1766.40;;;;;;5090023;28;20028;-69
2022/04/08 00:59:27;;;;;;;22.00;6.82;;;332.90;1740.80;;;;;;5094268;28;20027;-69
2022/04/08 01:01:53;;;;;;;14.70;7.22;;;332.90;1740.80;;;;;;5094147;28;20036;-69
2022/04/08 01:04:21;;;;;;;14.32;7.25;;;332.90;1740.80;;;;;;5094390;28;20023;-69
2022/04/08 01:06:47;;;;;;;14.52;6.80;;;333.00;1740.80;;;;;;5094174;28;20043;-69
2022/04/08 01:09:14;;;;;;;16.52;7.45;;;332.90;1740.80;;;;;;5094266;28;20115;-69
2022/04/08 01:11:41;;;;;;;12.00;7.43;;;333.00;1740.80;;;;;;5094432;28;20035;-69
2022/04/08 01:14:11;;;;;;;21.08;7.60;;;332.90;1740.80;;;;;;5093801;28;20072;-68
2022/04/08 01:16:38;;;;;;;19.70;9.15;;;332.80;1740.80;;;;;;5091275;28;20466;-69
2022/04/08 01:19:04;;;;;;;20.92;7.47;;;332.80;1740.80;;;;;;5094857;28;20035;-69
2022/04/08 01:21:33;;;;;;;19.25;7.70;;;332.80;1766.40;;;;;;5093700;28;20377;-69
2022/04/08 01:24:01;;;;;;;24.55;6.22;;;308.10;1740.80;;;;;;5093061;28;20069;-69
2022/04/08 01:26:27;;;;;;;15.88;6.00;;;308.10;1715.20;;;;;;5092621;28;20115;-69
2022/04/08 01:28:55;;;;;;;15.93;6.30;;;308.10;1715.20;;;;;;5093368;28;20103;-69
2022/04/08 01:31:23;;;;;;;12.80;6.90;;;308.10;1715.20;;;;;;5093498;28;20112;-69
2022/04/08 01:33:51;;;;;;;21.67;6.70;;;308.10;1715.20;;;;;;5092995;28;20107;-69
2022/04/08 01:36:17;;;;;;;14.02;5.82;;;308.00;1715.20;;;;;;5090719;28;20064;-69
2022/04/08 01:38:43;;;;;;;13.43;6.05;;;308.00;1715.20;;;;;;5093932;28;20024;-69
2022/04/08 01:41:08;;;;;;;12.80;6.50;;;308.00;1715.20;;;;;;5093806;28;20435;-70
2022/04/08 01:43:34;;;;;;;18.52;6.78;;;307.80;1740.80;;;;;;5092897;28;20555;-69
2022/04/08 01:46:00;;;;;;;11.48;6.57;;;307.70;1740.80;;;;;;5093415;28;20064;-69
2022/04/08 01:48:26;;;;;;;14.07;6.78;;;307.60;1766.40;;;;;;5094196;28;20048;-69
2022/04/08 01:50:52;;;;;;;12.55;6.80;;;307.40;1766.40;;;;;;5093930;28;20099;-69
2022/04/08 01:53:17;;;;;;;10.40;6.40;;;307.30;1792.00;;;;;;5093946;28;20062;-69
2022/04/08 01:55:44;;;;;;;9.88;6.38;;;307.20;1792.00;;;;;;5092167;28;20044;-69
2022/04/08 01:58:12;;;;;;;19.10;7.63;;;307.20;1792.00;;;;;;5094015;28;20058;-69
2022/04/08 02:00:39;;;;;;;11.90;6.80;;;307.30;1817.60;;;;;;5093719;28;20028;-69
2022/04/08 02:03:04;;;;;;;20.20;5.88;;;307.40;1792.00;;;;;;5093657;28;20020;-69
2022/04/08 02:05:31;;;;;;;19.38;5.88;;;307.50;1766.40;;;;;;5093989;28;20460;-69
2022/04/08 02:07:57;;;;;;;18.13;6.90;;;307.50;1766.40;;;;;;5093861;28;20469;-69
2022/04/08 02:10:24;;;;;;;17.17;6.55;;;307.50;1766.40;;;;;;5093352;28;20039;-69
2022/04/08 02:12:50;;;;;;;13.95;6.20;;;307.70;1740.80;;;;;;5093641;28;20028;-69
2022/04/08 02:15:15;;;;;;;10.82;5.05;;;307.70;1740.80;;;;;;5093301;28;20051;-69
2022/04/08 02:17:41;;;;;;;12.25;6.35;;;307.80;1715.20;;;;;;5094411;28;20488;-69
2022/04/08 02:20:10;;;;;;;8.27;5.55;;;307.70;1740.80;;;;;;5094034;28;20024;-69
2022/04/08 02:22:36;;;;;;;13.25;6.05;;;307.70;1740.80;;;;;;5093704;28;20107;-69
2022/04/08 02:25:03;;;;;;;9.63;5.63;;;307.70;1740.80;;;;;;5093832;28;20107;-69
2022/04/08 02:27:30;;;;;;;9.57;6.38;;;307.50;1740.80;;;;;;5093511;28;20016;-69
2022/04/08 02:30:00;;;;;;;12.05;5.95;;;307.50;1740.80;;;;;;5093859;28;20036;-69
2022/04/08 02:32:26;;;;;;;9.25;5.90;;;307.40;1740.80;;;;;;5093344;28;20048;-69
2022/04/08 02:34:52;;;;;;;10.80;6.40;;;307.40;1740.80;;;;;;5093555;28;20028;-70
2022/04/08 02:37:18;;;;;;;9.27;5.03;;;307.40;1766.40;;;;;;5093636;28;20028;-69
2022/04/08 02:39:44;;;;;;;14.05;5.70;;;307.40;1766.40;;;;;;5093348;28;20374;-69
2022/04/08 02:42:10;;;;;;;11.18;5.70;;;307.40;1740.80;;;;;;5093239;28;20017;-69
2022/04/08 02:44:35;;;;;;;15.13;6.25;;;307.40;1740.80;;;;;;5093569;28;20465;-69
2022/04/08 02:47:01;;;;;;;10.45;5.97;;;307.40;1766.40;;;;;;5093463;28;20347;-69
2022/04/08 02:49:27;;;;;;;13.98;6.10;;;307.40;1766.40;;;;;;5093431;28;20073;-69
2022/04/08 02:51:53;;;;;;;12.40;5.78;;;307.50;1740.80;;;;;;5093464;28;20024;-69
2022/04/08 02:54:19;;;;;;;9.68;5.97;;;307.40;1740.80;;;;;;5093137;28;20039;-69
2022/04/08 02:56:45;;;;;;;11.57;5.88;;;307.50;1740.80;;;;;;5094533;28;20032;-69
2022/04/08 02:59:10;;;;;;;14.85;6.07;;;307.50;1715.20;;;;;;5097369;28;20044;-69
2022/04/08 03:01:38;;;;;;;8.07;4.82;;;307.40;1715.20;;;;;;5097123;28;20024;-69
2022/04/08 03:04:08;;;;;;;12.00;5.03;;;307.50;1715.20;;;;;;5096063;28;20028;-69
2022/04/08 03:06:34;;;;;;;8.73;5.30;;;307.50;1715.20;;;;;;5097018;28;20026;-69
2022/04/08 03:09:01;;;;;;;8.00;5.47;;;307.50;1715.20;;;;;;5097165;28;20108;-69
2022/04/08 03:11:27;;;;;;;12.07;5.93;;;307.50;1715.20;;;;;;5096783;28;20016;-69
2022/04/08 03:13:53;;;;;;;9.00;5.10;;;307.50;1715.20;;;;;;5096729;28;20085;-68
2022/04/08 03:16:18;;;;;;;7.25;5.22;;;307.40;1715.20;;;;;;5096723;28;20063;-69
2022/04/08 03:18:46;;;;;;;10.60;5.47;;;307.30;1715.20;;;;;;5097001;28;20023;-69
2022/04/08 03:21:12;;;;;;;8.20;5.30;;;307.40;1715.20;;;;;;5097037;28;20024;-69
2022/04/08 03:23:39;;;;;;;9.88;5.75;;;307.30;1740.80;;;;;;5096837;28;20415;-69
2022/04/08 03:26:05;;;;;;;11.00;5.97;;;307.30;1740.80;;;;;;5096582;28;20022;-69
2022/04/08 03:28:31;;;;;;;15.30;6.20;;;307.30;1740.80;;;;;;5096686;28;20028;-69
2022/04/08 03:30:58;;;;;;;9.23;5.55;;;307.20;1766.40;;;;;;5096869;28;20036;-69
2022/04/08 03:33:23;;;;;;;12.30;5.57;;;307.20;1766.40;;;;;;5096493;28;20120;-69
2022/04/08 03:35:49;;;;;;;10.93;5.75;;;307.20;1740.80;;;;;;5096391;28;20114;-70
2022/04/08 03:38:15;;;;;;;7.85;5.30;;;307.20;1766.40;;;;;;5096541;28;20099;-69
2022/04/08 03:40:40;;;;;;;12.95;5.20;;;282.40;1740.80;;;;;;5096630;28;20024;-69
2022/04/08 03:43:06;;;;;;;13.23;6.38;;;282.40;1740.80;;;;;;5096583;28;20461;-69
2022/04/08 03:45:32;;;;;;;18.10;6.22;;;282.40;1740.80;;;;;;5096260;28;20031;-70
2022/04/08 03:47:58;;;;;;;14.98;5.72;;;307.20;1766.40;;;;;;5095842;28;20028;-69
2022/04/08 03:50:23;;;;;;;14.15;5.95;;;307.30;1740.80;;;;;;5096354;28;20466;-69
2022/04/08 03:52:49;;;;;;;9.85;6.00;;;307.20;1740.80;;;;;;5096275;28;20050;-70
2022/04/08 03:55:16;;;;;;;16.80;6.13;;;307.20;1740.80;;;;;;5095854;28;20549;-69
2022/04/08 03:57:42;;;;;;;15.32;7.80;;;307.30;1740.80;;;;;;5096222;28;20028;-69
2022/04/08 04:00:09;;;;;;;17.90;9.05;;;307.30;1740.80;;;;;;5095994;28;20473;-69
2022/04/08 04:02:35;;;;;;;19.48;8.02;;;307.30;1740.80;;;;;;5096242;28;20024;-69
2022/04/08 04:05:02;;;;;;;46.53;31.85;;;307.30;1740.80;;;;;;5096137;28;20024;-69
2022/04/08 04:07:28;;;;;;;48.05;28.10;;;307.30;1740.80;;;;;;5095758;28;20031;-70
2022/04/08 04:09:54;;;;;;;33.88;15.93;;;307.30;1740.80;;;;;;5095604;28;20024;-70
2022/04/08 04:12:20;;;;;;;20.75;7.43;;;307.20;1740.80;;;;;;5095938;28;20023;-70
2022/04/08 04:14:46;;;;;;;16.23;6.43;;;307.40;1715.20;;;;;;5095329;28;20048;-69
2022/04/08 04:17:12;;;;;;;17.00;6.65;;;307.30;1740.80;;;;;;5095950;28;20115;-69
2022/04/08 04:19:38;;;;;;;13.52;6.15;;;307.20;1740.80;;;;;;5095842;28;20462;-69
2022/04/08 04:22:04;;;;;;;12.40;7.45;;;282.50;1715.20;;;;;;5095736;28;20363;-69
2022/04/08 04:24:29;;;;;;;10.32;6.20;;;282.50;1715.20;;;;;;5095508;28;20024;-69
2022/04/08 04:26:55;;;;;;;10.27;6.53;;;282.50;1715.20;;;;;;5095527;28;20031;-69
2022/04/08 04:29:21;;;;;;;15.32;7.05;;;282.40;1715.20;;;;;;5095427;28;20054;-69
2022/04/08 04:31:56;;;;;;;18.90;8.00;;;282.40;1740.80;;;;;;5095507;28;20052;-69
2022/04/08 04:34:24;;;;;;;15.57;8.02;;;282.40;1740.80;;;;;;5095142;28;20085;-69
2022/04/08 04:36:50;;;;;;;33.35;25.25;;;282.30;1740.80;;;;;;5094109;28;20468;-69
2022/04/08 04:39:16;;;;;;;28.48;16.00;;;282.30;1740.80;;;;;;5095113;28;20032;-69
2022/04/08 04:41:42;;;;;;;29.80;18.73;;;282.40;1715.20;;;;;;5095390;28;20035;-69
2022/04/08 04:44:08;;;;;;;60.00;38.90;;;282.40;1740.80;;;;;;5095563;28;20051;-69
2022/04/08 04:46:34;;;;;;;21.80;14.65;;;282.30;1766.40;;;;;;5095509;28;20042;-69
2022/04/08 04:48:59;;;;;;;15.20;9.27;;;282.40;1715.20;;;;;;5095219;28;20035;-69
2022/04/08 04:51:26;;;;;;;13.32;9.75;;;282.30;1766.40;;;;;;5095120;28;20470;-69
2022/04/08 04:53:52;;;;;;;14.88;12.30;;;282.30;1766.40;;;;;;5095066;28;20024;-69
2022/04/08 04:56:18;;;;;;;22.35;15.95;;;282.20;1766.40;;;;;;5095018;28;20021;-69
2022/04/08 04:58:43;;;;;;;12.48;8.50;;;282.20;1766.40;;;;;;5095129;28;20381;-70
2022/04/08 05:01:09;;;;;;;11.23;7.95;;;282.10;1792.00;;;;;;5095007;28;20386;-69
2022/04/08 05:03:35;;;;;;;12.57;6.70;;;282.10;1792.00;;;;;;5094399;28;20159;-69
2022/04/08 05:06:00;;;;;;;13.30;6.88;;;282.00;1792.00;;;;;;5094993;28;20044;-69
2022/04/08 05:08:26;;;;;;;35.17;20.55;;;281.90;1817.60;;;;;;5094597;28;20028;-69
2022/04/08 05:10:52;;;;;;;37.67;27.65;;;281.90;1817.60;;;;;;5094596;28;20024;-69
2022/04/08 05:13:18;;;;;;;25.27;16.50;;;282.00;1817.60;;;;;;5094536;28;20069;-69
2022/04/08 05:15:45;;;;;;;15.48;8.77;;;282.10;1792.00;;;;;;5094642;28;20059;-69
2022/04/08 05:18:14;;;;;;;13.48;7.43;;;282.30;1792.00;;;;;;5094449;28;20016;-69
2022/04/08 05:20:39;;;;;;;15.27;7.28;;;282.20;1792.00;;;;;;5093961;28;20024;-69
2022/04/08 05:23:05;;;;;;;30.60;19.80;;;282.40;1792.00;;;;;;5094701;28;20433;-69
2022/04/08 05:25:31;;;;;;;68.85;45.15;;;282.40;1792.00;;;;;;5094332;28;20028;-69
2022/04/08 05:27:57;;;;;;;14.98;11.90;;;282.50;1792.00;;;;;;5094171;28;20107;-69
2022/04/08 05:30:22;;;;;;;14.10;10.60;;;307.20;1792.00;;;;;;5093785;28;20073;-69
2022/04/08 05:32:49;;;;;;;14.43;9.57;;;307.30;1792.00;;;;;;5094506;28;20111;-69
2022/04/08 05:35:16;;;;;;;11.60;9.07;;;307.40;1792.00;;;;;;5094252;28;20036;-69
2022/04/08 05:37:44;;;;;;;14.75;9.82;;;307.50;1792.00;;;;;;5094296;28;20028;-69
2022/04/08 05:40:16;;;;;;;11.40;7.70;;;307.50;1792.00;;;;;;5094378;28;20111;-69
2022/04/08 05:42:46;;;;;;;12.18;6.40;;;307.60;1792.00;;;;;;5094194;28;20044;-69
2022/04/08 05:45:18;;;;;;;12.35;7.90;;;307.70;1766.40;;;;;;5094312;28;20046;-69
2022/04/08 05:47:47;;;;;;;14.00;7.88;;;307.90;1766.40;;;;;;5094339;28;20024;-69
2022/04/08 05:50:14;;;;;;;14.02;6.60;;;307.90;1817.60;;;;;;5094166;28;20036;-69
2022/04/08 05:52:40;;;;;;;10.95;7.60;;;307.80;1817.60;;;;;;5094201;28;20020;-69
2022/04/08 05:55:07;;;;;;;47.92;32.00;;;307.90;1766.40;;;;;;5093987;28;20040;-69
2022/04/08 05:57:40;;;;;;;14.38;9.93;;;307.90;1792.00;;;;;;5093849;28;20477;-71
2022/04/08 06:00:08;;;;;;;15.43;8.52;;;308.00;1792.00;;;;;;5093286;28;20035;-69
2022/04/08 06:02:34;;;;;;;9.60;6.10;;;308.10;1792.00;;;;;;5093377;28;20031;-69
2022/04/08 06:04:59;;;;;;;12.10;7.55;;;332.80;1817.60;;;;;;5093144;28;20419;-69
2022/04/08 06:07:25;;;;;;;17.83;7.28;;;332.90;1817.60;;;;;;5093606;28;20024;-68
2022/04/08 06:09:51;;;;;;;12.57;7.05;;;333.00;1817.60;;;;;;5091550;28;20372;-68
2022/04/08 06:12:17;;;;;;;9.10;5.70;;;333.00;1792.00;;;;;;5093367;28;20435;-68
2022/04/08 06:14:43;;;;;;;13.05;7.13;;;333.10;1766.40;;;;;;5092874;28;20044;-69
2022/04/08 06:17:09;;;;;;;9.23;4.97;;;333.20;1766.40;;;;;;5092873;28;20107;-70
2022/04/08 06:19:34;;;;;;;10.13;6.15;;;333.30;1740.80;;;;;;5093229;28;20091;-69
2022/04/08 06:22:00;;;;;;;8.02;5.38;;;333.40;1740.80;;;;;;5093208;28;20031;-69
2022/04/08 06:24:26;;;;;;;7.25;5.10;;;333.50;1715.20;;;;;;5093749;28;20103;-69
2022/04/08 06:26:51;;;;;;;7.28;5.43;;;333.60;1715.20;;;;;;5093881;28;20024;-68
2022/04/08 06:29:17;;;;;;;10.55;5.65;;;333.70;1715.20;;;;;;5093409;28;20027;-69
2022/04/08 06:31:43;;;;;;;9.15;5.10;;;358.40;1715.20;;;;;;5096721;28;20037;-69
2022/04/08 06:34:08;;;;;;;8.82;5.97;;;358.40;1689.60;;;;;;5097464;28;20536;-69
2022/04/08 06:36:34;;;;;;;11.90;6.65;;;358.50;1689.60;;;;;;5097891;28;20028;-69
2022/04/08 06:39:00;;;;;;;29.50;13.77;;;358.60;1689.60;;;;;;5096704;28;20389;-68
2022/04/08 06:41:25;;;;;;;10.38;6.65;;;358.60;1664.00;;;;;;5097376;28;20058;-69
2022/04/08 06:43:51;;;;;;;14.13;5.70;;;358.70;1664.00;;;;;;5093888;28;20020;-69
2022/04/08 06:46:17;;;;;;;14.07;6.85;;;358.80;1664.00;;;;;;5096050;28;20479;-69
2022/04/08 06:48:43;;;;;;;23.60;14.43;;;358.90;1638.40;;;;;;5095821;28;20031;-69
2022/04/08 06:51:08;;;;;;;14.18;8.93;;;359.00;1664.00;;;;;;5096132;28;20024;-70
2022/04/08 06:53:34;;;;;;;12.80;7.15;;;359.10;1689.60;;;;;;5096083;28;20035;-70
